Station Historical Data
Daily Summary for November 19, 2017 Units:  English    Metric   Both
« Previous Day
Next Day »
Daily Weekly Monthly Yearly Custom
  High: Low: Average:
Temperature: 47.9 °F 30.6 °F 36.2 °F
Dew Point: 46.0 °F 23.5 °F 30.7 °F
Humidity: 93% 70% 81%
Wind Speed: 17.0mph 0.0mph 6.7mph
Wind Gust: 22.0mph - -
Wind- - WNW
Pressure: 29.90 in 29.07 in -
Precipitation: 0.00 in    
Historical Graphs
 
 
Tabular Data for November 19, 2017
Time Temperature Dew Point Pressure Wind Wind Speed Wind Gust Humidity Rainfall Rate (Hourly)
00:04 47.9 °F 46.0 °F 29.07 in Calm   3.0 mph 93% 0.08 in
00:09 47.9 °F 46.0 °F 29.07 in NW 1.0 mph 9.0 mph 93% 0.08 in
00:14 47.8 °F 45.9 °F 29.07 in NW 3.0 mph 9.0 mph 93% 0.09 in
00:24 47.4 °F 45.5 °F 29.07 in NNW 9.0 mph 9.0 mph 93% 0.07 in
00:29 47.2 °F 45.3 °F 29.07 in NW 4.0 mph 11.0 mph 93% 0.07 in
00:34 47.0 °F 45.1 °F 29.07 in NW 5.0 mph 13.0 mph 93% 0.07 in
00:39 46.9 °F 45.0 °F 29.07 in NW 7.0 mph 12.0 mph 93% 0.07 in
00:44 46.7 °F 44.8 °F 29.08 in NW 15.0 mph 18.0 mph 93% 0.06 in
00:49 46.1 °F 44.2 °F 29.08 in WNW 5.0 mph 17.0 mph 93% 0.07 in
00:54 45.3 °F 43.1 °F 29.08 in NW 3.0 mph 20.0 mph 92% 0.06 in
00:59 43.9 °F 41.7 °F 29.08 in NNW 7.0 mph 20.0 mph 92% 0.06 in
01:05 42.6 °F 40.4 °F 29.09 in NW 7.0 mph 20.0 mph 92% 0.05 in
01:10 42.0 °F 39.8 °F 29.12 in West 8.0 mph 18.0 mph 92% 0.06 in
01:15 41.5 °F 39.6 °F 29.12 in NW 12.0 mph 20.0 mph 93% 0.08 in
01:25 41.0 °F 39.1 °F 29.14 in NNW 7.0 mph 17.0 mph 93% 0.09 in
01:35 40.4 °F 38.5 °F 29.15 in NNW 9.0 mph 20.0 mph 93% 0.10 in
01:40 40.2 °F 38.3 °F 29.16 in NNW 10.0 mph 17.0 mph 93% 0.12 in
01:45 40.1 °F 38.2 °F 29.16 in NW 9.0 mph 18.0 mph 93% 0.14 in
01:50 40.0 °F 37.9 °F 29.16 in NNW 14.0 mph 18.0 mph 92% 0.15 in
02:10 38.8 °F 36.7 °F 29.19 in NW 6.0 mph 17.0 mph 92% 0.15 in
02:20 38.0 °F 35.9 °F 29.20 in NW 9.0 mph 17.0 mph 92% 0.12 in
02:25 37.7 °F 35.6 °F 29.22 in NW 10.0 mph 16.0 mph 92% 0.12 in
02:30 37.3 °F 35.2 °F 29.22 in NW 6.0 mph 16.0 mph 92% 0.12 in
02:35 36.7 °F 34.3 °F 29.24 in NW 7.0 mph 22.0 mph 91% 0.11 in
02:40 36.4 °F 34.3 °F 29.24 in NW 8.0 mph 22.0 mph 92% 0.09 in
02:45 36.1 °F 34.0 °F 29.25 in North 12.0 mph 14.0 mph 92% 0.07 in
02:50 36.0 °F 33.9 °F 29.25 in NNW 9.0 mph 17.0 mph 92% 0.05 in
02:55 36.1 °F 34.0 °F 29.26 in WNW 5.0 mph 13.0 mph 92% 0.05 in
03:05 36.0 °F 33.9 °F 29.27 in NW 5.0 mph 14.0 mph 92% 0.04 in
03:10 35.9 °F 33.8 °F 29.27 in NW 6.0 mph 16.0 mph 92% 0.04 in
03:15 35.7 °F 33.3 °F 29.27 in NW 8.0 mph 21.0 mph 91% 0.03 in
03:20 35.6 °F 33.2 °F 29.28 in NW 9.0 mph 21.0 mph 91% 0.04 in
03:25 35.4 °F 33.0 °F 29.28 in NW 7.0 mph 22.0 mph 91% 0.03 in
03:30 35.2 °F 32.8 °F 29.29 in NW 8.0 mph 22.0 mph 91% 0.03 in
03:34 34.9 °F 32.5 °F 29.30 in NW 4.0 mph 15.0 mph 91% 0.03 in
03:45 34.3 °F 31.9 °F 29.31 in NNW 5.0 mph 16.0 mph 91% 0.03 in
03:50 34.2 °F 31.8 °F 29.32 in NW 7.0 mph 15.0 mph 91% 0.04 in
03:55 34.1 °F 31.7 °F 29.33 in WNW 8.0 mph 13.0 mph 91% 0.03 in
04:00 34.1 °F 31.7 °F 29.34 in West 12.0 mph 16.0 mph 91% 0.03 in
04:05 34.1 °F 31.7 °F 29.34 in NW 1.0 mph 13.0 mph 91% 0.03 in
04:10 34.1 °F 31.7 °F 29.35 in WNW 7.0 mph 15.0 mph 91% 0.04 in
04:15 34.1 °F 31.7 °F 29.36 in WNW 7.0 mph 15.0 mph 91% 0.04 in
04:20 34.1 °F 31.7 °F 29.37 in WNW 8.0 mph 19.0 mph 91% 0.03 in
04:30 34.0 °F 31.6 °F 29.39 in West 9.0 mph 15.0 mph 91% 0.04 in
04:35 34.0 °F 31.6 °F 29.39 in WNW 10.0 mph 12.0 mph 91% 0.03 in
04:40 34.1 °F 31.7 °F 29.40 in WNW 7.0 mph 16.0 mph 91% 0.03 in
04:45 33.9 °F 31.6 °F 29.40 in WNW 8.0 mph 16.0 mph 91% 0.04 in
04:50 33.8 °F 31.5 °F 29.41 in WNW 9.0 mph 18.0 mph 91% 0.03 in
05:00 33.6 °F 31.3 °F 29.42 in West 5.0 mph 13.0 mph 91% 0.03 in
05:05 33.7 °F 31.4 °F 29.42 in WNW 6.0 mph 16.0 mph 91% 0.04 in
05:10 33.8 °F 31.5 °F 29.43 in WNW 5.0 mph 8.0 mph 91% 0.03 in
05:15 34.0 °F 31.6 °F 29.44 in WNW 6.0 mph 12.0 mph 91% 0.03 in
05:25 34.6 °F 32.2 °F 29.45 in WNW 7.0 mph 14.0 mph 91% 0.04 in
05:30 34.9 °F 32.8 °F 29.45 in WNW 7.0 mph 12.0 mph 92% 0.03 in
05:35 35.1 °F 33.0 °F 29.46 in NNW 4.0 mph 10.0 mph 92% 0.03 in
05:44 35.4 °F 33.0 °F 29.46 in WNW 6.0 mph 13.0 mph 91% 0.02 in
05:50 35.6 °F 33.2 °F 29.47 in WNW 6.0 mph 13.0 mph 91% 0.02 in
05:59 36.0 °F 33.6 °F 29.48 in West 6.0 mph 18.0 mph 91% 0.02 in
06:05 36.1 °F 33.7 °F 29.48 in West 7.0 mph 16.0 mph 91% 0.01 in
06:10 36.1 °F 33.5 °F 29.48 in West 10.0 mph 19.0 mph 90% 0.01 in
06:15 36.1 °F 33.5 °F 29.48 in NNW 6.0 mph 16.0 mph 90% 0.01 in
06:25 36.2 °F 33.0 °F 29.49 in WNW 7.0 mph 21.0 mph 88% 0.00 in
06:30 36.2 °F 33.0 °F 29.50 in WNW 7.0 mph 21.0 mph 88% 0.00 in
06:35 36.3 °F 32.8 °F 29.50 in WNW 7.0 mph 21.0 mph 87% 0.00 in
06:40 36.4 °F 32.6 °F 29.51 in WNW 8.0 mph 16.0 mph 86% 0.00 in
06:45 36.4 °F 32.3 °F 29.51 in WNW 8.0 mph 15.0 mph 85% 0.00 in
06:54 36.6 °F 32.2 °F 29.52 in West 6.0 mph 20.0 mph 84% 0.00 in
06:59 36.4 °F 31.7 °F 29.52 in WNW 13.0 mph 15.0 mph 83% 0.00 in
07:04 36.4 °F 31.7 °F 29.53 in WNW 17.0 mph 17.0 mph 83% 0.00 in
07:09 36.4 °F 31.4 °F 29.53 in NNW 3.0 mph 17.0 mph 82% 0.00 in
07:24 36.1 °F 31.1 °F 29.54 in NW 6.0 mph 13.0 mph 82% 0.00 in
07:35 36.1 °F 31.4 °F 29.56 in WNW 4.0 mph 10.0 mph 83% 0.00 in
07:40 36.1 °F 31.1 °F 29.56 in WNW 3.0 mph 13.0 mph 82% 0.00 in
07:45 36.3 °F 31.3 °F 29.56 in WNW 5.0 mph 15.0 mph 82% 0.00 in
07:50 36.4 °F 31.1 °F 29.57 in WNW 6.0 mph 15.0 mph 81% 0.00 in
07:55 36.6 °F 31.6 °F 29.57 in WNW 6.0 mph 7.0 mph 82% 0.00 in
08:04 36.7 °F 31.4 °F 29.58 in West 7.0 mph 13.0 mph 81% 0.00 in
08:10 36.8 °F 31.5 °F 29.59 in WNW 7.0 mph 13.0 mph 81% 0.00 in
08:14 36.8 °F 31.5 °F 29.59 in West 3.0 mph 7.0 mph 81% 0.00 in
08:19 36.7 °F 31.4 °F 29.59 in West 1.0 mph 10.0 mph 81% 0.00 in
08:25 36.7 °F 31.4 °F 29.60 in WSW 4.0 mph 9.0 mph 81% 0.00 in
08:30 36.7 °F 31.4 °F 29.60 in WSW 4.0 mph 9.0 mph 81% 0.00 in
08:34 36.6 °F 31.3 °F 29.60 in West 5.0 mph 10.0 mph 81% 0.00 in
08:40 36.6 °F 31.3 °F 29.60 in West 5.0 mph 13.0 mph 81% 0.00 in
08:45 36.6 °F 31.3 °F 29.61 in West 6.0 mph 13.0 mph 81% 0.01 in
08:50 36.6 °F 31.3 °F 29.62 in West 6.0 mph 14.0 mph 81% 0.01 in
09:00 36.6 °F 31.3 °F 29.62 in WNW 9.0 mph 11.0 mph 81% 0.01 in
09:04 36.6 °F 31.3 °F 29.62 in West 7.0 mph 12.0 mph 81% 0.01 in
09:09 36.6 °F 31.0 °F 29.62 in West 5.0 mph 10.0 mph 80% 0.01 in
09:14 36.6 °F 31.0 °F 29.63 in West 13.0 mph 13.0 mph 80% 0.01 in
09:20 36.6 °F 31.0 °F 29.63 in WSW 10.0 mph 14.0 mph 80% 0.01 in
09:30 36.9 °F 31.0 °F 29.63 in WNW 2.0 mph 12.0 mph 79% 0.01 in
09:39 37.1 °F 30.6 °F 29.63 in West 6.0 mph 13.0 mph 77% 0.01 in
09:49 38.0 °F 31.4 °F 29.64 in West 6.0 mph 12.0 mph 77% 0.00 in
10:00 38.0 °F 30.8 °F 29.64 in West 5.0 mph 12.0 mph 75% 0.00 in
10:05 38.4 °F 31.5 °F 29.65 in West 6.0 mph 12.0 mph 76% 0.00 in
10:09 38.5 °F 31.6 °F 29.65 in NW 5.0 mph 11.0 mph 76% 0.00 in
10:14 38.4 °F 30.8 °F 29.65 in West 6.0 mph 15.0 mph 74% 0.00 in
10:19 38.5 °F 30.9 °F 29.65 in WSW 3.0 mph 12.0 mph 74% 0.00 in
10:24 38.7 °F 30.8 °F 29.65 in West 5.0 mph 12.0 mph 73% 0.00 in
10:29 38.7 °F 30.4 °F 29.66 in West 9.0 mph 16.0 mph 72% 0.00 in
10:35 38.6 °F 30.4 °F 29.66 in West 5.0 mph 13.0 mph 72% 0.00 in
10:40 38.8 °F 30.9 °F 29.66 in WNW 7.0 mph 12.0 mph 73% 0.00 in
10:44 38.8 °F 30.5 °F 29.66 in West 7.0 mph 18.0 mph 72% 0.00 in
10:54 38.9 °F 30.3 °F 29.66 in West 8.0 mph 18.0 mph 71% 0.00 in
11:00 39.3 °F 30.3 °F 29.66 in West 8.0 mph 18.0 mph 70% 0.00 in
11:10 38.9 °F 30.3 °F 29.66 in WSW 8.0 mph 16.0 mph 71% 0.00 in
11:15 38.5 °F 29.9 °F 29.66 in WSW 5.0 mph 15.0 mph 71% 0.00 in
11:19 38.1 °F 30.2 °F 29.67 in West 2.0 mph 12.0 mph 73% 0.00 in
11:29 37.7 °F 30.8 °F 29.67 in West 3.0 mph 13.0 mph 76% 0.00 in
11:34 37.8 °F 31.6 °F 29.67 in WNW 12.0 mph 12.0 mph 78% 0.00 in
11:39 37.7 °F 31.1 °F 29.66 in WSW 4.0 mph 14.0 mph 77% 0.00 in
11:44 37.5 °F 30.9 °F 29.66 in WNW 5.0 mph 12.0 mph 77% 0.00 in
11:54 37.3 °F 30.7 °F 29.66 in West 7.0 mph 12.0 mph 77% 0.00 in
12:05 37.5 °F 31.3 °F 29.66 in WNW 6.0 mph 12.0 mph 78% 0.00 in
12:15 37.5 °F 31.3 °F 29.67 in West 6.0 mph 12.0 mph 78% 0.00 in
12:19 37.4 °F 31.2 °F 29.67 in WSW 6.0 mph 8.0 mph 78% 0.00 in
12:24 37.3 °F 31.4 °F 29.66 in NW 5.0 mph 9.0 mph 79% 0.00 in
12:29 37.2 °F 31.6 °F 29.66 in North 4.0 mph 8.0 mph 80% 0.00 in
12:34 37.1 °F 31.5 °F 29.66 in NW 3.0 mph 11.0 mph 80% 0.00 in
12:39 37.5 °F 32.2 °F 29.67 in West 1.0 mph 6.0 mph 81% 0.00 in
12:44 37.7 °F 32.1 °F 29.67 in WNW 4.0 mph 11.0 mph 80% 0.00 in
12:55 38.0 °F 31.7 °F 29.67 in WNW 1.0 mph 11.0 mph 78% 0.00 in
12:59 38.2 °F 31.3 °F 29.66 in WNW 6.0 mph 14.0 mph 76% 0.00 in
13:10 38.4 °F 30.5 °F 29.66 in WNW 7.0 mph 14.0 mph 73% 0.00 in
13:14 38.5 °F 30.6 °F 29.66 in West 7.0 mph 14.0 mph 73% 0.00 in
13:20 38.6 °F 30.0 °F 29.66 in WNW 7.0 mph 15.0 mph 71% 0.00 in
13:24 38.6 °F 30.0 °F 29.66 in SW 4.0 mph 16.0 mph 71% 0.00 in
13:29 38.7 °F 30.1 °F 29.67 in SW 9.0 mph 12.0 mph 71% 0.00 in
13:34 38.8 °F 30.2 °F 29.67 in West 5.0 mph 12.0 mph 71% 0.00 in
13:39 38.7 °F 30.1 °F 29.67 in West 7.0 mph 17.0 mph 71% 0.00 in
13:44 38.6 °F 29.7 °F 29.67 in WSW 6.0 mph 18.0 mph 70% 0.00 in
13:55 38.6 °F 29.7 °F 29.67 in West 12.0 mph 13.0 mph 70% 0.00 in
13:59 38.5 °F 29.6 °F 29.67 in WNW 8.0 mph 17.0 mph 70% 0.00 in
14:04 38.5 °F 29.6 °F 29.67 in West 9.0 mph 18.0 mph 70% 0.00 in
14:14 38.4 °F 29.8 °F 29.67 in West 7.0 mph 15.0 mph 71% 0.00 in
14:25 37.8 °F 29.9 °F 29.68 in WNW 6.0 mph 14.0 mph 73% 0.00 in
14:29 37.2 °F 30.0 °F 29.68 in WSW 9.0 mph 15.0 mph 75% 0.00 in
14:34 36.8 °F 29.9 °F 29.68 in West 4.0 mph 13.0 mph 76% 0.00 in
14:49 36.6 °F 30.7 °F 29.68 in West 9.0 mph 11.0 mph 79% 0.00 in
14:55 36.7 °F 30.8 °F 29.68 in West 8.0 mph 10.0 mph 79% 0.00 in
15:00 36.8 °F 30.6 °F 29.68 in West 4.0 mph 9.0 mph 78% 0.00 in
15:05 37.0 °F 30.8 °F 29.68 in West 2.0 mph 11.0 mph 78% 0.00 in
15:09 37.2 °F 31.0 °F 29.69 in WNW 5.0 mph 16.0 mph 78% 0.01 in
15:14 37.4 °F 30.5 °F 29.69 in WNW 6.0 mph 17.0 mph 76% 0.01 in
15:19 37.4 °F 30.2 °F 29.70 in West 7.0 mph 17.0 mph 75% 0.01 in
15:24 37.0 °F 30.1 °F 29.70 in West 9.0 mph 17.0 mph 76% 0.01 in
15:29 36.8 °F 30.3 °F 29.71 in WNW 10.0 mph 17.0 mph 77% 0.01 in
15:39 36.5 °F 30.3 °F 29.71 in West 9.0 mph 15.0 mph 78% 0.01 in
15:54 36.2 °F 30.0 °F 29.72 in WNW 10.0 mph 19.0 mph 78% 0.01 in
15:59 36.1 °F 29.6 °F 29.72 in WNW 8.0 mph 13.0 mph 77% 0.01 in
16:10 36.1 °F 29.6 °F 29.72 in WNW 13.0 mph 14.0 mph 77% 0.00 in
16:29 35.8 °F 28.0 °F 29.74 in WNW 10.0 mph 22.0 mph 73% 0.00 in
16:35 35.5 °F 27.4 °F 29.74 in WNW 16.0 mph 19.0 mph 72% 0.00 in
16:39 35.3 °F 27.5 °F 29.74 in NW 12.0 mph 19.0 mph 73% 0.00 in
16:54 35.0 °F 26.9 °F 29.75 in WNW 9.0 mph 18.0 mph 72% 0.00 in
17:09 34.7 °F 26.6 °F 29.76 in West 13.0 mph 17.0 mph 72% 0.00 in
17:14 34.6 °F 26.5 °F 29.76 in NW 11.0 mph 17.0 mph 72% 0.00 in
17:29 34.3 °F 26.5 °F 29.76 in WNW 7.0 mph 17.0 mph 73% 0.00 in
17:34 34.2 °F 26.4 °F 29.77 in WNW 7.0 mph 17.0 mph 73% 0.00 in
17:39 34.2 °F 26.4 °F 29.77 in WNW 7.0 mph 13.0 mph 73% 0.00 in
17:44 34.1 °F 26.3 °F 29.77 in WNW 7.0 mph 13.0 mph 73% 0.00 in
18:04 33.9 °F 26.2 °F 29.78 in WNW 8.0 mph 11.0 mph 73% 0.00 in
18:14 33.9 °F 26.2 °F 29.79 in WNW 5.0 mph 14.0 mph 73% 0.00 in
18:19 33.9 °F 26.2 °F 29.79 in NW 9.0 mph 13.0 mph 73% 0.00 in
18:29 33.8 °F 26.4 °F 29.80 in WNW 8.0 mph 12.0 mph 74% 0.00 in
18:34 33.6 °F 25.9 °F 29.80 in WNW 5.0 mph 13.0 mph 73% 0.00 in
18:39 33.5 °F 25.8 °F 29.81 in WNW 6.0 mph 15.0 mph 73% 0.00 in
18:49 33.3 °F 25.6 °F 29.81 in NW 7.0 mph 15.0 mph 73% 0.00 in
18:59 33.1 °F 25.1 °F 29.81 in NW 7.0 mph 15.0 mph 72% 0.00 in
19:04 33.1 °F 25.1 °F 29.82 in West 8.0 mph 16.0 mph 72% 0.00 in
19:09 33.0 °F 24.6 °F 29.81 in WNW 8.0 mph 16.0 mph 71% 0.00 in
19:14 32.9 °F 24.2 °F 29.81 in WNW 9.0 mph 16.0 mph 70% 0.00 in
19:19 32.8 °F 24.1 °F 29.81 in WNW 7.0 mph 16.0 mph 70% 0.00 in
19:29 32.6 °F 24.2 °F 29.82 in WNW 8.0 mph 12.0 mph 71% 0.00 in
19:39 32.5 °F 24.1 °F 29.83 in WNW 6.0 mph 13.0 mph 71% 0.00 in
19:49 32.4 °F 24.0 °F 29.83 in WNW 6.0 mph 14.0 mph 71% 0.00 in
19:54 32.4 °F 24.0 °F 29.83 in NW 7.0 mph 14.0 mph 71% 0.00 in
19:59 32.4 °F 24.0 °F 29.83 in West 7.0 mph 11.0 mph 71% 0.00 in
20:19 32.4 °F 23.7 °F 29.84 in NW 5.0 mph 16.0 mph 70% 0.00 in
20:29 32.3 °F 23.9 °F 29.84 in West 6.0 mph 10.0 mph 71% 0.00 in
20:34 32.2 °F 24.5 °F 29.84 in WSW 3.0 mph 10.0 mph 73% 0.00 in
20:39 32.1 °F 24.4 °F 29.85 in WNW 2.0 mph 13.0 mph 73% 0.00 in
20:44 31.9 °F 24.2 °F 29.85 in West 5.0 mph 13.0 mph 73% 0.00 in
20:49 31.9 °F 24.2 °F 29.85 in West 5.0 mph 12.0 mph 73% 0.00 in
20:54 31.9 °F 23.9 °F 29.85 in WNW 5.0 mph 12.0 mph 72% 0.00 in
20:59 31.9 °F 23.6 °F 29.85 in WNW 7.0 mph 14.0 mph 71% 0.00 in
21:09 31.9 °F 23.6 °F 29.86 in WNW 6.0 mph 12.0 mph 71% 0.00 in
21:14 31.9 °F 23.6 °F 29.86 in WNW 6.0 mph 12.0 mph 71% 0.00 in
21:19 31.8 °F 23.5 °F 29.86 in West 8.0 mph 11.0 mph 71% 0.00 in
21:24 31.8 °F 23.5 °F 29.86 in West 3.0 mph 15.0 mph 71% 0.00 in
21:29 31.7 °F 23.7 °F 29.86 in WNW 9.0 mph 14.0 mph 72% 0.00 in
21:34 31.7 °F 23.7 °F 29.86 in WNW 6.0 mph 13.0 mph 72% 0.00 in
21:39 31.6 °F 23.9 °F 29.87 in West 3.0 mph 8.0 mph 73% 0.00 in
21:44 31.5 °F 24.2 °F 29.87 in WSW 5.0 mph 7.0 mph 74% 0.00 in
21:49 31.4 °F 24.7 °F 29.87 in West 4.0 mph 10.0 mph 76% 0.00 in
21:54 31.3 °F 24.9 °F 29.87 in West 5.0 mph 10.0 mph 77% 0.00 in
21:59 31.2 °F 25.4 °F 29.87 in West 5.0 mph 14.0 mph 79% 0.00 in
22:04 31.1 °F 25.7 °F 29.87 in West 5.0 mph 14.0 mph 80% 0.00 in
22:14 30.9 °F 26.1 °F 29.88 in West 5.0 mph 11.0 mph 82% 0.00 in
22:19 30.8 °F 26.0 °F 29.88 in West 7.0 mph 12.0 mph 82% 0.00 in
22:29 30.6 °F 25.8 °F 29.88 in West 4.0 mph 13.0 mph 82% 0.00 in
22:54 30.7 °F 25.9 °F 29.88 in West 6.0 mph 19.0 mph 82% 0.00 in
23:04 30.7 °F 25.9 °F 29.89 in West 7.0 mph 16.0 mph 82% 0.00 in
23:14 30.8 °F 25.7 °F 29.89 in WSW 7.0 mph 15.0 mph 81% 0.00 in
23:19 30.8 °F 25.7 °F 29.89 in WSW 11.0 mph 14.0 mph 81% 0.00 in
23:24 30.8 °F 25.7 °F 29.89 in WSW 4.0 mph 12.0 mph 81% 0.00 in
23:39 30.9 °F 25.5 °F 29.90 in West 6.0 mph 12.0 mph 80% 0.00 in
23:44 30.9 °F 25.2 °F 29.90 in West 5.0 mph 13.0 mph 79% 0.00 in
23:54 31.1 °F 24.7 °F 29.90 in WSW 6.0 mph 14.0 mph 77% 0.00 in
23:59 31.1 °F 24.4 °F 29.90 in West 7.0 mph 14.0 mph 76% 0.00 in
Buffalo, New York, USA
Compliments of Weather Underground - 2 mb